Time;durP1;ratioP1;P1;durP2;ratioP2;P2;SDS_P1;SDS_P2;PMS_P1;PMS_P2;Temp;Humidity;BMP_temperature;BMP_pressure;BME280_temperature;BME280_humidity;BME280_pressure;Samples;Min_cycle;Max_cycle;Signal;HPM_P1;HPM_P2
2020/12/26 00:00:53;;;;;;;43.05;16.77;;;;;;;4.14;100.00;100482.59;1674973;84;21101;-83
2020/12/26 00:03:18;;;;;;;43.48;15.63;;;;;;;4.02;100.00;100486.50;1708051;83;21165;-84
2020/12/26 00:05:47;;;;;;;31.85;14.05;;;;;;;3.89;100.00;100486.11;1707985;84;21715;-83
2020/12/26 00:08:15;;;;;;;31.95;13.32;;;;;;;3.92;100.00;100492.86;1707936;84;21756;-83
2020/12/26 00:10:41;;;;;;;27.77;12.07;;;;;;;3.86;100.00;100493.22;1708015;84;21173;-83
2020/12/26 00:13:07;;;;;;;30.65;12.80;;;;;;;3.81;100.00;100493.04;1708017;83;21041;-83
2020/12/26 00:15:33;;;;;;;32.58;12.35;;;;;;;3.75;100.00;100484.59;1679750;84;21569;-83
2020/12/26 00:17:59;;;;;;;27.45;11.30;;;;;;;3.85;100.00;100488.89;1708018;84;21428;-83
2020/12/26 00:20:25;;;;;;;23.70;10.80;;;;;;;3.78;100.00;100478.81;1708064;83;21227;-83
2020/12/26 00:22:51;;;;;;;23.95;10.00;;;;;;;3.75;100.00;100476.59;1707998;84;21148;-84
2020/12/26 00:25:17;;;;;;;27.30;11.05;;;;;;;3.64;100.00;100473.58;1707961;83;20951;-84
2020/12/26 00:27:43;;;;;;;19.27;9.30;;;;;;;3.69;100.00;100468.95;1703284;84;20943;-83
2020/12/26 00:30:11;;;;;;;20.95;9.55;;;;;;;3.70;100.00;100476.42;1707966;84;21065;-83
2020/12/26 00:32:36;;;;;;;19.82;9.13;;;;;;;3.73;100.00;100470.66;1707911;84;21192;-84
2020/12/26 00:35:03;;;;;;;19.35;8.60;;;;;;;3.62;100.00;100473.00;1707875;83;20958;-83
2020/12/26 00:37:29;;;;;;;19.42;9.05;;;;;;;3.72;100.00;100469.84;1673716;85;21646;-84
2020/12/26 00:39:54;;;;;;;22.13;9.50;;;;;;;3.74;100.00;100469.64;1673865;85;21027;-84
2020/12/26 00:42:20;;;;;;;20.62;8.63;;;;;;;3.75;100.00;100471.26;1673915;85;20946;-84
2020/12/26 00:44:46;;;;;;;21.50;9.48;;;;;;;3.66;100.00;100470.72;1673923;85;21916;-83
2020/12/26 00:47:12;;;;;;;21.37;9.00;;;;;;;3.74;100.00;100470.97;1673840;85;21030;-84
2020/12/26 00:49:38;;;;;;;24.20;9.80;;;;;;;3.73;100.00;100468.80;1673889;85;20994;-84
2020/12/26 00:52:03;;;;;;;23.25;9.55;;;;;;;3.82;100.00;100464.02;1673772;85;21657;-84
2020/12/26 00:54:29;;;;;;;23.38;10.18;;;;;;;3.85;100.00;100463.58;1673903;85;21014;-84
2020/12/26 00:56:55;;;;;;;22.20;9.13;;;;;;;3.87;100.00;100466.33;1673903;85;21188;-84
2020/12/26 00:59:21;;;;;;;20.97;8.90;;;;;;;3.91;100.00;100461.36;1673769;85;21759;-84
2020/12/26 01:01:55;;;;;;;27.75;9.55;;;;;;;3.97;100.00;100465.84;1673785;85;21057;-84
2020/12/26 01:04:21;;;;;;;18.90;8.78;;;;;;;4.01;100.00;100468.88;1671481;85;21081;-84
2020/12/26 01:06:55;;;;;;;19.45;9.33;;;;;;;4.07;100.00;100476.81;1673890;84;21132;-84
2020/12/26 01:09:23;;;;;;;;;;;;;;;4.09;100.00;100485.42;1704804;84;21255;-84
2020/12/26 01:11:52;;;;;;;18.25;8.78;;;;;;;3.98;100.00;100482.66;1664476;85;20278;-84
2020/12/26 01:14:19;;;;;;;20.75;8.73;;;;;;;3.80;100.00;100480.23;1664482;85;21175;-84
2020/12/26 01:16:51;;;;;;;17.02;8.20;;;;;;;3.72;100.00;100485.02;1664706;84;21136;-84
2020/12/26 01:19:18;;;;;;;19.57;8.50;;;;;;;3.75;100.00;100487.25;1664696;85;21299;-84
2020/12/26 01:21:54;;;;;;;21.27;8.90;;;;;;;3.74;100.00;100488.30;1664624;85;21229;-84
2020/12/26 01:24:21;;;;;;;20.97;8.98;;;;;;;3.70;100.00;100487.08;1664518;85;21148;-84
2020/12/26 01:26:49;;;;;;;18.65;9.05;;;;;;;3.67;100.00;100480.33;1664620;86;21092;-84
2020/12/26 01:29:15;;;;;;;24.30;9.80;;;;;;;3.69;100.00;100481.45;1664675;85;21089;-84
2020/12/26 01:31:42;;;;;;;22.32;9.68;;;;;;;3.72;100.00;100473.03;1664557;85;21235;-84
2020/12/26 01:34:09;;;;;;;19.32;9.18;;;;;;;3.78;100.00;100473.48;1660815;85;21203;-84
2020/12/26 01:36:35;;;;;;;21.48;10.48;;;;;;;3.82;100.00;100472.84;1664562;85;21200;-84
2020/12/26 01:39:01;;;;;;;17.98;8.68;;;;;;;3.84;100.00;100473.42;1664712;85;21183;-84
2020/12/26 01:41:27;;;;;;;16.60;8.55;;;;;;;3.81;100.00;100473.86;1664590;86;21152;-84
2020/12/26 01:44:01;;;;;;;49.15;10.08;;;;;;;3.82;100.00;100468.85;1664553;84;21024;-84
2020/12/26 01:46:31;;;;;;;17.77;8.85;;;;;;;3.86;100.00;100467.37;1663438;85;21340;-84
2020/12/26 01:48:59;;;;;;;20.45;8.98;;;;;;;3.90;100.00;100465.08;1654992;86;21641;-84
2020/12/26 01:51:29;;;;;;;19.32;9.03;;;;;;;3.89;100.00;100471.45;1654878;85;21140;-84
2020/12/26 01:53:57;;;;;;;20.45;8.78;;;;;;;3.89;100.00;100467.97;1654836;86;21592;-84
2020/12/26 01:56:25;;;;;;;17.98;8.15;;;;;;;3.90;100.00;100474.41;1654779;85;21559;-84
2020/12/26 01:58:51;;;;;;;15.83;8.03;;;;;;;3.93;100.00;100477.97;1632589;86;21232;-84
2020/12/26 02:01:17;;;;;;;16.97;8.10;;;;;;;3.82;100.00;100481.34;1659787;84;20954;-84
2020/12/26 02:03:43;;;;;;;17.75;8.63;;;;;;;3.73;100.00;100479.45;1697867;83;21075;-84
2020/12/26 02:06:10;;;;;;;15.10;7.53;;;;;;;3.67;100.00;100483.00;1697745;84;21162;-84
2020/12/26 02:08:36;;;;;;;17.77;8.13;;;;;;;3.65;100.00;100478.42;1697969;84;21161;-84
2020/12/26 02:11:06;;;;;;;17.48;8.25;;;;;;;3.62;100.00;100490.84;1697801;84;21127;-84
2020/12/26 02:13:34;;;;;;;15.68;8.45;;;;;;;3.56;100.00;100488.53;1697833;84;21173;-83
2020/12/26 02:16:08;;;;;;;19.45;8.60;;;;;;;3.57;100.00;100479.49;1697870;84;21523;-84
2020/12/26 02:18:35;;;;;;;15.80;7.83;;;;;;;3.59;100.00;100475.29;1697781;84;21414;-84
2020/12/26 02:21:03;;;;;;;20.72;8.85;;;;;;;3.59;100.00;100473.96;1697839;84;21070;-84
2020/12/26 02:23:29;;;;;;;17.80;8.18;;;;;;;3.55;100.00;100490.87;1697768;83;21190;-85
2020/12/26 02:25:57;;;;;;;17.55;8.63;;;;;;;3.46;100.00;100486.84;1697715;84;21197;-84
2020/12/26 02:28:24;;;;;;;19.40;8.65;;;;;;;3.41;100.00;100490.17;1651588;86;21636;-84
2020/12/26 02:30:51;;;;;;;19.67;8.53;;;;;;;3.36;100.00;100498.50;1651593;86;21638;-84
2020/12/26 02:33:18;;;;;;;16.45;8.25;;;;;;;3.35;100.00;100504.34;1651728;86;21555;-83
2020/12/26 02:35:47;;;;;;;18.30;8.78;;;;;;;3.34;100.00;100507.20;1651267;86;21254;-84
2020/12/26 02:38:15;;;;;;;18.90;9.00;;;;;;;3.25;100.00;100507.97;1651578;86;21307;-84
2020/12/26 02:40:41;;;;;;;19.67;9.90;;;;;;;3.29;100.00;100507.83;1651538;86;21235;-84
2020/12/26 02:43:24;;;;;;;21.80;9.75;;;;;;;3.31;100.00;100507.11;1651450;85;21224;-84
2020/12/26 02:45:52;;;;;;;21.68;10.03;;;;;;;3.35;100.00;100512.33;1651650;86;21169;-85
2020/12/26 02:48:18;;;;;;;23.73;10.35;;;;;;;3.34;100.00;100510.68;1626901;86;21934;-84
2020/12/26 02:50:44;;;;;;;21.17;9.30;;;;;;;3.35;100.00;100510.16;1647707;86;21592;-84
2020/12/26 02:53:10;;;;;;;20.92;9.65;;;;;;;3.36;100.00;100516.62;1647888;86;20954;-84
2020/12/26 02:55:37;;;;;;;20.52;9.60;;;;;;;3.34;100.00;100503.21;1648413;86;21187;-84
2020/12/26 02:58:03;;;;;;;23.57;10.63;;;;;;;3.38;100.00;100510.58;1648604;85;21194;-84
2020/12/26 03:00:30;;;;;;;21.52;9.70;;;;;;;3.48;100.00;100512.75;1647744;85;22134;-83
2020/12/26 03:02:56;;;;;;;21.25;9.30;;;;;;;3.53;100.00;100512.09;1647881;86;21706;-85
2020/12/26 03:05:22;;;;;;;20.10;8.73;;;;;;;3.55;100.00;100513.52;1647893;86;21083;-83
2020/12/26 03:07:48;;;;;;;20.05;9.25;;;;;;;3.52;100.00;100507.28;1647716;86;21663;-83
2020/12/26 03:10:14;;;;;;;18.75;8.78;;;;;;;3.51;100.00;100511.52;1647803;86;21076;-82
2020/12/26 03:12:40;;;;;;;17.42;8.10;;;;;;;3.53;100.00;100512.09;1648344;86;21254;-83
2020/12/26 03:15:06;;;;;;;18.50;9.03;;;;;;;3.51;100.00;100515.51;1647235;86;20972;-83
2020/12/26 03:17:32;;;;;;;19.98;9.40;;;;;;;3.44;100.00;100509.39;1648047;86;21102;-83
2020/12/26 03:19:59;;;;;;;30.45;11.22;;;;;;;3.38;100.00;100508.40;1647434;86;21032;-83
2020/12/26 03:22:27;;;;;;;27.95;11.65;;;;;;;3.35;100.00;100508.83;1647607;86;21142;-83
2020/12/26 03:24:54;;;;;;;29.77;11.78;;;;;;;3.32;100.00;100510.59;1609577;88;21663;-83
2020/12/26 03:27:21;;;;;;;28.95;11.65;;;;;;;3.30;100.00;100516.14;1626696;88;21718;-83
2020/12/26 03:29:48;;;;;;;35.30;12.63;;;;;;;3.30;100.00;100510.82;1626774;88;21519;-83
2020/12/26 03:32:14;;;;;;;29.72;12.05;;;;;;;3.30;100.00;100509.48;1626625;88;21217;-83
2020/12/26 03:34:40;;;;;;;32.75;11.88;;;;;;;3.26;100.00;100512.26;1626618;88;21265;-83
2020/12/26 03:37:06;;;;;;;28.55;11.78;;;;;;;3.31;100.00;100517.77;1626850;87;21926;-83
2020/12/26 03:39:38;;;;;;;30.10;11.22;;;;;;;3.32;100.00;100509.26;1626935;86;21208;-83
2020/12/26 03:42:06;;;;;;;27.07;11.48;;;;;;;3.35;100.00;100504.34;1626749;87;21209;-83
2020/12/26 03:44:32;;;;;;;27.42;11.30;;;;;;;3.34;100.00;100506.69;1626775;88;21200;-83
2020/12/26 03:46:58;;;;;;;25.37;10.82;;;;;;;3.38;100.00;100507.91;1626623;87;21181;-83
2020/12/26 03:49:24;;;;;;;29.20;11.30;;;;;;;3.41;100.00;100517.29;1626694;87;21997;-83
2020/12/26 03:51:51;;;;;;;28.47;11.35;;;;;;;3.35;100.00;100524.81;1626729;87;21641;-83
2020/12/26 03:54:17;;;;;;;38.02;12.00;;;;;;;3.33;100.00;100534.88;1626609;88;21095;-83
2020/12/26 03:56:43;;;;;;;40.08;12.50;;;;;;;3.30;100.00;100533.45;1626914;88;21156;-84
2020/12/26 03:59:14;;;;;;;35.33;12.23;;;;;;;3.30;100.00;100536.64;1627148;86;21201;-84
2020/12/26 04:01:40;;;;;;;32.53;11.00;;;;;;;3.32;100.00;100524.72;1626695;86;21320;-83
2020/12/26 04:04:07;;;;;;;35.80;11.00;;;;;;;3.37;100.00;100521.42;1626627;88;21241;-84
2020/12/26 04:06:33;;;;;;;42.50;12.53;;;;;;;3.41;100.00;100513.30;1626826;87;21302;-84
2020/12/26 04:08:59;;;;;;;39.70;12.28;;;;;;;3.35;100.00;100510.16;1626628;88;21194;-84
2020/12/26 04:11:25;;;;;;;40.80;12.03;;;;;;;3.06;99.91;100508.88;1626916;88;21082;-83
2020/12/26 04:13:52;;;;;;;46.23;13.85;;;;;;;3.04;100.00;100509.62;1626695;88;21670;-84
2020/12/26 04:16:19;;;;;;;50.25;14.25;;;;;;;3.08;100.00;100510.83;1626668;88;21208;-84
2020/12/26 04:18:45;;;;;;;40.75;12.70;;;;;;;3.00;100.00;100524.38;1626812;87;21205;-84
2020/12/26 04:21:11;;;;;;;43.63;12.73;;;;;;;3.07;100.00;100522.00;1645342;84;20920;-85
2020/12/26 04:23:37;;;;;;;47.53;13.75;;;;;;;3.08;100.00;100529.46;1697665;84;21679;-84
2020/12/26 04:26:09;;;;;;;48.68;14.13;;;;;;;3.06;100.00;100545.66;1697672;84;21177;-84
2020/12/26 04:28:35;;;;;;;50.50;14.78;;;;;;;3.03;100.00;100544.75;1695124;84;21066;-84
2020/12/26 04:31:01;;;;;;;48.45;14.78;;;;;;;3.00;100.00;100549.17;1697564;84;21137;-84
2020/12/26 04:33:27;;;;;;;53.63;14.83;;;;;;;2.97;100.00;100553.55;1697635;84;21577;-84
2020/12/26 04:35:53;;;;;;;52.60;14.75;;;;;;;2.91;100.00;100555.24;1697591;84;20919;-84
2020/12/26 04:38:18;;;;;;;54.18;14.63;;;;;;;2.89;100.00;100560.47;1697590;84;21189;-84
2020/12/26 04:40:48;;;;;;;50.03;14.35;;;;;;;2.92;100.00;100573.35;1697588;84;21066;-84
2020/12/26 04:43:14;;;;;;;56.15;14.93;;;;;;;2.76;100.00;100580.45;1697559;84;21173;-83
2020/12/26 04:45:41;;;;;;;53.35;14.75;;;;;;;2.77;100.00;100582.91;1697587;84;21129;-84
2020/12/26 04:48:15;;;;;;;52.50;14.33;;;;;;;2.76;100.00;100589.24;1697822;83;21596;-84
2020/12/26 04:50:47;;;;;;;51.50;14.98;;;;;;;2.72;100.00;100587.52;1697872;84;21559;-84
2020/12/26 04:53:17;;;;;;;46.75;14.53;;;;;;;2.63;100.00;100587.44;1697803;84;21158;-84
2020/12/26 04:55:49;;;;;;;41.42;12.93;;;;;;;2.49;100.00;100578.66;1697780;84;21154;-86
2020/12/26 04:58:19;;;;;;;47.08;13.50;;;;;;;2.53;100.00;100587.06;1698199;84;21081;-84
2020/12/26 05:00:46;;;;;;;39.85;13.68;;;;;;;2.54;100.00;100597.99;1698177;84;21126;-85
2020/12/26 05:03:14;;;;;;;40.55;12.98;;;;;;;2.50;100.00;100608.23;1697986;84;21237;-84
2020/12/26 05:05:42;;;;;;;44.40;14.07;;;;;;;2.44;100.00;100615.71;1697589;84;21142;-84
2020/12/26 05:08:14;;;;;;;41.30;13.60;;;;;;;2.31;100.00;100611.72;1697774;84;21113;-84
2020/12/26 05:10:42;;;;;;;42.10;14.05;;;;;;;2.25;100.00;100618.66;1697902;84;21479;-84
2020/12/26 05:13:11;;;;;;;43.20;14.20;;;;;;;2.30;100.00;100627.89;1697825;84;21618;-84
2020/12/26 05:15:37;;;;;;;45.90;14.05;;;;;;;2.15;100.00;100636.87;1677692;84;21143;-84
2020/12/26 05:18:06;;;;;;;44.88;14.53;;;;;;;2.37;100.00;100651.30;1697869;84;21491;-83
2020/12/26 05:20:32;;;;;;;42.65;13.90;;;;;;;2.37;100.00;100655.28;1697856;84;21130;-84
2020/12/26 05:23:18;;;;;;;42.33;14.83;;;;;;;2.41;100.00;100657.83;1697743;84;21629;-84
2020/12/26 05:25:50;;;;;;;38.55;13.15;;;;;;;2.35;100.00;100653.33;1697727;84;21145;-84
2020/12/26 05:28:20;;;;;;;38.35;13.32;;;;;;;2.20;100.00;100664.97;1697839;84;21549;-84
2020/12/26 05:30:52;;;;;;;45.85;15.23;;;;;;;2.22;100.00;100673.58;1697866;83;21598;-84
2020/12/26 05:33:19;;;;;;;40.48;14.15;;;;;;;2.25;100.00;100675.02;1697820;83;21062;-84
2020/12/26 05:35:52;;;;;;;40.65;14.33;;;;;;;2.10;100.00;100674.38;1697849;84;21118;-84
2020/12/26 05:38:26;;;;;;;39.60;13.28;;;;;;;2.11;100.00;100687.45;1697935;84;21590;-84
2020/12/26 05:40:55;;;;;;;41.13;14.15;;;;;;;2.18;100.00;100686.97;1677911;84;21159;-84
2020/12/26 05:43:30;;;;;;;34.83;12.68;;;;;;;2.18;100.00;100688.82;1677499;84;21621;-84
2020/12/26 05:45:57;;;;;;;38.45;13.55;;;;;;;2.12;100.00;100706.39;1697895;84;21177;-84
2020/12/26 05:48:26;;;;;;;40.60;13.53;;;;;;;2.05;100.00;100709.53;1698889;84;21153;-83
2020/12/26 05:51:01;;;;;;;39.45;13.03;;;;;;;1.84;100.00;100713.16;1700410;84;21475;-83
2020/12/26 05:53:29;;;;;;;38.60;13.75;;;;;;;1.67;100.00;100720.64;1700377;84;22087;-84
2020/12/26 05:55:55;;;;;;;38.05;13.60;;;;;;;1.59;100.00;100724.81;1700296;84;21677;-83
2020/12/26 05:58:25;;;;;;;40.10;14.20;;;;;;;1.60;100.00;100727.77;1700271;84;21602;-84
2020/12/26 06:00:52;;;;;;;40.43;13.75;;;;;;;1.36;100.00;100727.25;1700536;84;21058;-83
2020/12/26 06:03:32;;;;;;;34.15;12.37;;;;;;;1.46;100.00;100716.77;1700297;84;21144;-84
2020/12/26 06:06:01;;;;;;;34.18;13.18;;;;;;;1.61;100.00;100726.75;1700291;84;21622;-84
2020/12/26 06:08:29;;;;;;;42.25;14.00;;;;;;;1.67;100.00;100729.13;1700336;84;21582;-83
2020/12/26 06:10:58;;;;;;;38.40;13.22;;;;;;;1.47;100.00;100728.54;1700336;84;21169;-83
2020/12/26 06:13:29;;;;;;;32.80;12.55;;;;;;;1.52;100.00;100726.61;1700414;84;21148;-83
2020/12/26 06:16:01;;;;;;;37.03;13.53;;;;;;;1.44;100.00;100730.73;1700434;84;21619;-84
2020/12/26 06:18:33;;;;;;;37.25;13.75;;;;;;;1.42;100.00;100728.30;1698048;84;21225;-83
2020/12/26 06:20:58;;;;;;;38.10;14.03;;;;;;;1.45;100.00;100737.20;1700317;84;21527;-84
2020/12/26 06:23:25;;;;;;;38.65;13.78;;;;;;;1.48;100.00;100734.66;1700431;84;20966;-83
2020/12/26 06:25:55;;;;;;;39.63;13.48;;;;;;;1.55;100.00;100732.84;1700477;84;21073;-83
2020/12/26 06:28:30;;;;;;;36.65;13.32;;;;;;;1.51;100.00;100740.39;1681445;85;21169;-84
2020/12/26 06:31:08;;;;;;;33.78;12.85;;;;;;;1.49;100.00;100731.80;1681587;85;21251;-84
2020/12/26 06:33:44;;;;;;;35.92;13.20;;;;;;;1.22;100.00;100740.12;1645551;85;21234;-84
2020/12/26 06:36:12;;;;;;;35.90;12.88;;;;;;;1.36;100.00;100749.00;1568112;91;21190;-84
2020/12/26 06:38:39;;;;;;;38.80;13.58;;;;;;;1.30;100.00;100758.56;1568143;91;21295;-84
2020/12/26 06:41:16;;;;;;;32.33;12.98;;;;;;;1.38;100.00;100751.44;1528989;91;21245;-84
2020/12/26 06:43:52;;;;;;;35.40;13.85;;;;;;;1.39;100.00;100745.14;1512873;93;21325;-84
2020/12/26 06:46:29;;;;;;;32.85;12.98;;;;;;;1.49;100.00;100750.90;1512720;93;21268;-84
2020/12/26 06:48:57;;;;;;;38.30;13.83;;;;;;;1.54;100.00;100751.95;1502585;93;21259;-84
2020/12/26 06:51:41;;;;;;;40.45;14.75;;;;;;;1.62;100.00;100746.15;1492886;96;21156;-84
2020/12/26 06:54:12;;;;;;;;;;;;;;;1.69;100.00;100744.36;1474548;97;21243;-84
2020/12/26 06:56:46;;;;;;;39.20;13.60;;;;;;;1.71;100.00;100747.65;1472097;97;20282;-84
2020/12/26 06:59:14;;;;;;;36.80;13.83;;;;;;;1.78;100.00;100753.80;1472437;97;21225;-84
2020/12/26 07:01:44;;;;;;;36.15;13.83;;;;;;;1.81;100.00;100750.23;1472346;96;21228;-84
2020/12/26 07:04:20;;;;;;;32.10;12.80;;;;;;;1.84;100.00;100760.98;1447128;98;21309;-84
2020/12/26 07:06:55;;;;;;;35.43;12.90;;;;;;;1.87;100.00;100763.75;1447328;99;21185;-84
2020/12/26 07:09:41;;;;;;;35.00;13.30;;;;;;;1.87;100.00;100770.39;1447319;99;21302;-85
2020/12/26 07:12:09;;;;;;;33.78;12.78;;;;;;;1.91;100.00;100776.94;1456174;98;21671;-84
2020/12/26 07:14:38;;;;;;;33.10;13.10;;;;;;;1.96;100.00;100785.14;1456191;98;21218;-84
2020/12/26 07:17:21;;;;;;;36.77;14.53;;;;;;;1.98;100.00;100801.72;1456176;98;21269;-84
2020/12/26 07:19:48;;;;;;;39.35;15.05;;;;;;;1.99;100.00;100794.05;1456532;98;21916;-84
2020/12/26 07:22:22;;;;;;;38.48;14.50;;;;;;;2.06;100.00;100796.24;1477639;97;21169;-84
2020/12/26 07:24:54;;;;;;;38.85;14.45;;;;;;;2.10;100.00;100795.33;1481396;95;21692;-84
2020/12/26 07:27:25;;;;;;;31.70;12.07;;;;;;;2.17;100.00;100783.68;1486765;96;21674;-84
2020/12/26 07:30:18;;;;;;;32.63;11.65;;;;;;;2.18;100.00;100790.66;1486565;96;21239;-84
2020/12/26 07:32:55;;;;;;;27.73;11.35;;;;;;;2.24;100.00;100802.33;1507410;92;21237;-84
2020/12/26 07:35:26;;;;;;;27.93;11.20;;;;;;;2.25;100.00;100807.95;1544823;92;21814;-84
2020/12/26 07:38:03;;;;;;;24.15;10.43;;;;;;;2.27;100.00;100804.08;1544771;92;21245;-84
2020/12/26 07:40:45;;;;;;;32.60;11.75;;;;;;;2.17;100.00;100799.63;1546755;92;21249;-84
2020/12/26 07:43:18;;;;;;;32.60;11.35;;;;;;;2.27;100.00;100808.58;1548605;92;21162;-84
2020/12/26 07:45:46;;;;;;;31.25;11.80;;;;;;;2.26;100.00;100824.20;1549393;92;21232;-84
2020/12/26 07:48:13;;;;;;;33.88;11.15;;;;;;;2.00;99.74;100830.23;1549168;91;21303;-84
2020/12/26 07:50:41;;;;;;;26.30;10.68;;;;;;;1.90;99.98;100830.59;1575431;90;21203;-84
2020/12/26 07:53:10;;;;;;;35.10;12.37;;;;;;;1.90;100.00;100843.89;1593906;89;21339;-84
2020/12/26 07:55:37;;;;;;;34.00;12.18;;;;;;;2.30;100.00;100847.25;1593834;89;21112;-84
2020/12/26 07:58:11;;;;;;;33.18;12.50;;;;;;;2.17;100.00;100850.14;1568976;89;21160;-84
2020/12/26 08:00:40;;;;;;;31.85;12.80;;;;;;;2.13;100.00;100856.88;1625196;84;21209;-85
2020/12/26 08:03:11;;;;;;;35.13;13.22;;;;;;;2.23;100.00;100859.16;1697560;84;21579;-85
2020/12/26 08:05:39;;;;;;;33.25;12.65;;;;;;;2.07;100.00;100864.32;1697733;84;21157;-84
2020/12/26 08:08:20;;;;;;;35.10;14.03;;;;;;;1.87;99.75;100860.73;1697566;84;21149;-84
2020/12/26 08:10:45;;;;;;;35.17;13.32;;;;;;;2.05;100.00;100863.69;1697403;84;21157;-84
2020/12/26 08:13:16;;;;;;;36.03;12.85;;;;;;;1.72;99.73;100860.85;1697700;84;21570;-84
2020/12/26 08:15:43;;;;;;;37.15;12.53;;;;;;;1.91;100.00;100863.30;1697147;84;21153;-84
2020/12/26 08:18:10;;;;;;;32.13;12.75;;;;;;;1.94;100.00;100858.92;1697580;84;21201;-85
2020/12/26 08:20:37;;;;;;;31.37;11.53;;;;;;;1.88;100.00;100845.91;1697646;84;21239;-85
2020/12/26 08:23:03;;;;;;;31.05;11.65;;;;;;;1.69;99.98;100843.46;1697596;84;21129;-85
2020/12/26 08:25:30;;;;;;;29.48;11.80;;;;;;;1.97;100.00;100846.09;1697601;84;21414;-84
2020/12/26 08:27:57;;;;;;;26.97;10.20;;;;;;;2.05;100.00;100837.92;1694001;84;21206;-85
2020/12/26 08:30:30;;;;;;;29.50;12.23;;;;;;;1.96;100.00;100832.98;1697431;84;21054;-85
2020/12/26 08:33:13;;;;;;;31.10;11.57;;;;;;;2.02;100.00;100838.31;1697725;84;21217;-84
2020/12/26 08:36:02;;;;;;;32.00;12.33;;;;;;;2.16;100.00;100848.51;1669021;86;21218;-84
2020/12/26 08:38:40;;;;;;;35.68;13.15;;;;;;;2.16;99.97;100857.81;1668848;86;21342;-84
2020/12/26 08:41:07;;;;;;;34.48;12.70;;;;;;;2.37;100.00;100869.35;1665860;86;21141;-84
2020/12/26 08:43:33;;;;;;;32.85;12.30;;;;;;;2.41;100.00;100875.91;1668866;86;21174;-84
2020/12/26 08:46:04;;;;;;;34.98;12.98;;;;;;;2.20;99.22;100880.31;1668893;86;21665;-84
2020/12/26 08:48:34;;;;;;;30.00;11.48;;;;;;;2.34;100.00;100890.52;1646293;86;21630;-84
2020/12/26 08:51:01;;;;;;;31.42;12.37;;;;;;;2.39;100.00;100893.41;1646267;87;21234;-85
2020/12/26 08:53:27;;;;;;;32.03;12.07;;;;;;;2.37;100.00;100899.94;1649461;87;21205;-84
2020/12/26 08:55:55;;;;;;;32.08;12.40;;;;;;;2.50;100.00;100904.00;1649404;87;21085;-84
2020/12/26 08:58:33;;;;;;;36.03;13.10;;;;;;;2.46;100.00;100898.23;1649465;87;21209;-85
2020/12/26 09:01:02;;;;;;;34.78;12.95;;;;;;;2.55;100.00;100887.42;1655767;86;21187;-84
2020/12/26 09:03:32;;;;;;;34.58;12.53;;;;;;;2.69;100.00;100885.93;1657289;86;21139;-85
2020/12/26 09:06:00;;;;;;;33.25;12.23;;;;;;;2.76;100.00;100879.28;1657092;86;21700;-84
2020/12/26 09:08:32;;;;;;;33.50;12.50;;;;;;;2.90;100.00;100871.64;1657153;86;21186;-84
2020/12/26 09:11:08;;;;;;;29.57;12.55;;;;;;;2.72;99.20;100862.91;1657061;86;21186;-84
2020/12/26 09:13:48;;;;;;;32.60;12.45;;;;;;;2.59;99.07;100856.24;1656883;86;21724;-85
2020/12/26 09:16:17;;;;;;;35.65;12.55;;;;;;;2.77;99.27;100839.70;1657149;86;21897;-85
2020/12/26 09:18:48;;;;;;;31.42;12.37;;;;;;;2.36;98.83;100823.33;1600520;89;21313;-85
2020/12/26 09:21:28;;;;;;;33.42;12.90;;;;;;;2.54;99.25;100821.44;1600706;89;21210;-85
2020/12/26 09:23:57;;;;;;;39.20;13.78;;;;;;;2.48;98.54;100825.72;1578492;89;21259;-85
2020/12/26 09:26:26;;;;;;;33.35;12.73;;;;;;;2.92;99.38;100843.51;1559622;89;21191;-85
2020/12/26 09:29:03;;;;;;;34.10;13.40;;;;;;;2.95;98.66;100847.09;1600404;89;21285;-85
2020/12/26 09:31:38;;;;;;;32.35;12.50;;;;;;;3.12;98.83;100838.20;1580219;90;21164;-84
2020/12/26 09:34:23;;;;;;;38.98;13.53;;;;;;;3.11;97.39;100844.53;1494446;96;21709;-84
2020/12/26 09:37:08;;;;;;;32.53;12.95;;;;;;;3.35;99.08;100848.42;1452374;98;21615;-85
2020/12/26 09:39:38;;;;;;;30.70;12.18;;;;;;;3.20;96.95;100865.94;1452386;98;21627;-85
2020/12/26 09:42:05;;;;;;;27.75;11.10;;;;;;;3.16;95.91;100858.06;1452283;97;21296;-85
2020/12/26 09:44:34;;;;;;;29.32;11.80;;;;;;;2.93;95.27;100858.44;1457440;96;21741;-85
2020/12/26 09:47:06;;;;;;;30.05;12.55;;;;;;;2.93;96.16;100857.11;1482880;96;21737;-85
2020/12/26 09:49:35;;;;;;;28.85;11.53;;;;;;;3.14;97.26;100871.56;1479570;96;21302;-85
2020/12/26 09:52:01;;;;;;;34.30;12.15;;;;;;;3.41;97.87;100872.90;1475560;95;21291;-85
2020/12/26 09:54:27;;;;;;;31.57;12.13;;;;;;;3.24;95.03;100865.04;1475623;97;22140;-84
2020/12/26 09:56:55;;;;;;;26.52;11.30;;;;;;;3.57;96.76;100870.34;1475829;95;21086;-84
2020/12/26 09:59:21;;;;;;;29.65;11.18;;;;;;;3.46;94.51;100867.78;1457867;97;21241;-84
2020/12/26 10:01:47;;;;;;;30.65;11.33;;;;;;;3.65;94.89;100875.47;1475823;97;21098;-85
2020/12/26 10:04:13;;;;;;;29.45;11.12;;;;;;;3.52;95.41;100878.13;1483262;93;21095;-84
2020/12/26 10:06:39;;;;;;;24.70;10.10;;;;;;;3.75;96.53;100869.70;1517430;94;21731;-84
2020/12/26 10:09:05;;;;;;;27.73;11.00;;;;;;;3.87;97.32;100870.70;1517338;94;21244;-84
2020/12/26 10:11:32;;;;;;;27.65;11.08;;;;;;;3.84;95.99;100868.45;1520611;94;21016;-84
2020/12/26 10:13:58;;;;;;;25.35;10.88;;;;;;;3.74;95.45;100853.41;1551744;91;21204;-84
2020/12/26 10:16:24;;;;;;;28.90;11.75;;;;;;;3.70;94.82;100860.98;1565064;91;21237;-85
2020/12/26 10:18:50;;;;;;;30.27;12.00;;;;;;;3.66;94.89;100861.63;1564928;90;21311;-84
2020/12/26 10:21:17;;;;;;;29.52;11.78;;;;;;;3.66;95.62;100861.63;1570148;89;21371;-85
2020/12/26 10:23:43;;;;;;;32.42;12.00;;;;;;;3.67;96.37;100849.41;1597350;89;21800;-85
2020/12/26 10:26:10;;;;;;;30.37;12.33;;;;;;;3.48;94.88;100848.42;1597301;89;21765;-85
2020/12/26 10:28:36;;;;;;;31.70;12.43;;;;;;;3.48;95.32;100850.27;1627701;86;21100;-84
2020/12/26 10:31:03;;;;;;;30.27;12.33;;;;;;;3.52;95.01;100845.64;1683929;84;21256;-84
2020/12/26 10:33:29;;;;;;;28.77;12.25;;;;;;;3.58;94.95;100841.33;1697820;84;21162;-85
2020/12/26 10:35:55;;;;;;;29.55;11.38;;;;;;;3.47;92.78;100832.63;1697757;83;21170;-85
2020/12/26 10:38:22;;;;;;;27.58;11.38;;;;;;;3.41;92.20;100824.95;1697821;84;20947;-85
2020/12/26 10:40:48;;;;;;;31.10;11.95;;;;;;;3.16;93.28;100838.09;1697905;84;21527;-84
2020/12/26 10:43:18;;;;;;;30.80;11.48;;;;;;;3.31;93.27;100837.36;1697907;84;21197;-85
2020/12/26 10:45:44;;;;;;;32.08;13.32;;;;;;;3.68;95.27;100844.41;1697644;84;21162;-84
2020/12/26 10:48:10;;;;;;;28.12;11.28;;;;;;;3.75;94.80;100844.38;1697778;83;21125;-84
2020/12/26 10:50:37;;;;;;;30.30;12.18;;;;;;;3.56;92.47;100852.70;1697751;83;21490;-85
2020/12/26 10:53:03;;;;;;;29.23;11.85;;;;;;;3.62;94.13;100854.05;1697833;84;21133;-85
2020/12/26 10:55:29;;;;;;;25.50;10.28;;;;;;;3.77;95.25;100865.80;1697653;84;21224;-85
2020/12/26 10:57:55;;;;;;;28.50;11.60;;;;;;;3.85;95.81;100889.58;1694531;84;21578;-85
2020/12/26 11:00:21;;;;;;;25.02;10.63;;;;;;;3.68;94.93;100915.52;1677600;84;20955;-85
2020/12/26 11:02:47;;;;;;;24.15;10.48;;;;;;;3.40;94.02;100900.05;1697942;83;21154;-85
2020/12/26 11:05:13;;;;;;;23.35;10.00;;;;;;;3.53;95.33;100902.41;1677505;84;21206;-84
2020/12/26 11:07:39;;;;;;;22.98;9.73;;;;;;;3.53;94.77;100913.91;1697815;84;21495;-84
2020/12/26 11:10:05;;;;;;;22.07;9.48;;;;;;;3.48;95.04;100923.02;1697824;84;21011;-84
2020/12/26 11:12:31;;;;;;;22.32;9.38;;;;;;;3.33;94.13;100931.73;1697746;84;21575;-85
2020/12/26 11:14:57;;;;;;;22.15;9.58;;;;;;;3.14;94.28;100930.14;1676814;84;21279;-84
2020/12/26 11:17:23;;;;;;;22.45;9.48;;;;;;;3.27;95.54;100928.55;1697741;83;21137;-84
2020/12/26 11:19:49;;;;;;;28.42;10.30;;;;;;;3.31;95.00;100940.42;1697757;83;21218;-84
2020/12/26 11:22:15;;;;;;;24.55;10.35;;;;;;;3.28;94.47;100952.30;1697833;84;20987;-85